sensor_id;sensor_type;location;lat;lon;timestamp;temperature;humidity
20977;DHT22;10647;51.016;3.720;2023-04-30T00:01:16;11.40;99.90
20977;DHT22;10647;51.016;3.720;2023-04-30T00:03:44;11.40;99.90
20977;DHT22;10647;51.016;3.720;2023-04-30T00:06:11;11.30;99.90
20977;DHT22;10647;51.016;3.720;2023-04-30T00:08:39;11.30;99.90
20977;DHT22;10647;51.016;3.720;2023-04-30T00:11:06;11.30;99.90
20977;DHT22;10647;51.016;3.720;2023-04-30T00:13:34;11.20;99.90
20977;DHT22;10647;51.016;3.720;2023-04-30T00:16:02;11.20;99.90
20977;DHT22;10647;51.016;3.720;2023-04-30T00:18:29;11.20;99.90
20977;DHT22;10647;51.016;3.720;2023-04-30T00:20:57;11.20;99.90
20977;DHT22;10647;51.016;3.720;2023-04-30T00:23:24;11.10;99.90
20977;DHT22;10647;51.016;3.720;2023-04-30T00:25:52;11.10;99.90
20977;DHT22;10647;51.016;3.720;2023-04-30T00:28:19;11.00;99.90
20977;DHT22;10647;51.016;3.720;2023-04-30T00:30:47;11.00;99.90
20977;DHT22;10647;51.016;3.720;2023-04-30T00:33:14;11.00;99.90
20977;DHT22;10647;51.016;3.720;2023-04-30T00:35:42;11.00;99.90
20977;DHT22;10647;51.016;3.720;2023-04-30T00:38:10;10.90;99.90
20977;DHT22;10647;51.016;3.720;2023-04-30T00:40:39;10.90;99.90
20977;DHT22;10647;51.016;3.720;2023-04-30T00:43:14;10.90;99.90
20977;DHT22;10647;51.016;3.720;2023-04-30T00:45:42;10.80;99.90
20977;DHT22;10647;51.016;3.720;2023-04-30T00:48:09;10.80;99.90
20977;DHT22;10647;51.016;3.720;2023-04-30T00:50:37;10.80;99.90
20977;DHT22;10647;51.016;3.720;2023-04-30T00:53:06;10.70;99.90
20977;DHT22;10647;51.016;3.720;2023-04-30T00:55:33;10.70;99.90
20977;DHT22;10647;51.016;3.720;2023-04-30T00:58:01;10.80;99.90
20977;DHT22;10647;51.016;3.720;2023-04-30T01:00:29;10.70;99.90
20977;DHT22;10647;51.016;3.720;2023-04-30T01:02:57;10.60;99.90
20977;DHT22;10647;51.016;3.720;2023-04-30T01:05:24;10.60;99.90
20977;DHT22;10647;51.016;3.720;2023-04-30T01:07:53;10.60;99.90
20977;DHT22;10647;51.016;3.720;2023-04-30T01:10:25;10.60;99.90
20977;DHT22;10647;51.016;3.720;2023-04-30T01:13:08;10.60;99.90
20977;DHT22;10647;51.016;3.720;2023-04-30T01:15:44;10.60;99.90
20977;DHT22;10647;51.016;3.720;2023-04-30T01:21:18;10.50;99.90
20977;DHT22;10647;51.016;3.720;2023-04-30T01:26:52;10.40;99.90
20977;DHT22;10647;51.016;3.720;2023-04-30T01:29:18;10.40;99.90
20977;DHT22;10647;51.016;3.720;2023-04-30T01:31:46;10.40;99.90
20977;DHT22;10647;51.016;3.720;2023-04-30T01:34:19;10.40;99.90
20977;DHT22;10647;51.016;3.720;2023-04-30T01:40:19;10.50;99.90
20977;DHT22;10647;51.016;3.720;2023-04-30T01:42:51;10.50;99.90
20977;DHT22;10647;51.016;3.720;2023-04-30T01:48:38;10.40;99.90
20977;DHT22;10647;51.016;3.720;2023-04-30T01:51:29;10.40;99.90
20977;DHT22;10647;51.016;3.720;2023-04-30T01:54:01;10.40;99.90
20977;DHT22;10647;51.016;3.720;2023-04-30T01:56:36;10.30;99.90
20977;DHT22;10647;51.016;3.720;2023-04-30T01:59:07;10.30;99.90
20977;DHT22;10647;51.016;3.720;2023-04-30T02:01:36;10.30;99.90
20977;DHT22;10647;51.016;3.720;2023-04-30T02:04:04;10.20;99.90
20977;DHT22;10647;51.016;3.720;2023-04-30T02:06:31;10.20;99.90
20977;DHT22;10647;51.016;3.720;2023-04-30T02:08:59;10.20;99.90
20977;DHT22;10647;51.016;3.720;2023-04-30T02:11:32;10.20;99.90
20977;DHT22;10647;51.016;3.720;2023-04-30T02:13:59;10.20;99.90
20977;DHT22;10647;51.016;3.720;2023-04-30T02:16:27;10.20;99.90
20977;DHT22;10647;51.016;3.720;2023-04-30T02:18:54;10.10;99.90
20977;DHT22;10647;51.016;3.720;2023-04-30T02:21:22;10.10;99.90
20977;DHT22;10647;51.016;3.720;2023-04-30T02:23:52;10.10;99.90
20977;DHT22;10647;51.016;3.720;2023-04-30T02:26:21;10.10;99.90
20977;DHT22;10647;51.016;3.720;2023-04-30T02:28:48;10.10;99.90
20977;DHT22;10647;51.016;3.720;2023-04-30T02:31:21;10.10;99.90
20977;DHT22;10647;51.016;3.720;2023-04-30T02:33:49;10.00;99.90
20977;DHT22;10647;51.016;3.720;2023-04-30T02:36:17;10.00;99.90
20977;DHT22;10647;51.016;3.720;2023-04-30T02:38:44;10.00;99.90
20977;DHT22;10647;51.016;3.720;2023-04-30T02:41:12;10.00;99.90
20977;DHT22;10647;51.016;3.720;2023-04-30T02:43:39;9.90;99.90
20977;DHT22;10647;51.016;3.720;2023-04-30T02:46:07;9.90;99.90
20977;DHT22;10647;51.016;3.720;2023-04-30T02:48:34;9.90;99.90
20977;DHT22;10647;51.016;3.720;2023-04-30T02:51:05;9.90;99.90
20977;DHT22;10647;51.016;3.720;2023-04-30T02:53:32;9.90;99.90
20977;DHT22;10647;51.016;3.720;2023-04-30T02:56:00;9.90;99.90
20977;DHT22;10647;51.016;3.720;2023-04-30T02:58:28;9.90;99.90
20977;DHT22;10647;51.016;3.720;2023-04-30T03:00:56;9.90;99.90
20977;DHT22;10647;51.016;3.720;2023-04-30T03:03:23;9.90;99.90
20977;DHT22;10647;51.016;3.720;2023-04-30T03:05:51;9.90;99.90
20977;DHT22;10647;51.016;3.720;2023-04-30T03:11:05;9.80;99.90
20977;DHT22;10647;51.016;3.720;2023-04-30T03:13:33;9.80;99.90
20977;DHT22;10647;51.016;3.720;2023-04-30T03:16:02;9.80;99.90
20977;DHT22;10647;51.016;3.720;2023-04-30T03:18:32;9.80;99.90
20977;DHT22;10647;51.016;3.720;2023-04-30T03:21:00;9.70;99.90
20977;DHT22;10647;51.016;3.720;2023-04-30T03:23:28;9.70;99.90
20977;DHT22;10647;51.016;3.720;2023-04-30T03:25:55;9.70;99.90
20977;DHT22;10647;51.016;3.720;2023-04-30T03:28:23;9.70;99.90
20977;DHT22;10647;51.016;3.720;2023-04-30T03:30:50;9.70;99.90
20977;DHT22;10647;51.016;3.720;2023-04-30T03:33:18;9.60;99.90
20977;DHT22;10647;51.016;3.720;2023-04-30T03:35:45;9.60;99.90
20977;DHT22;10647;51.016;3.720;2023-04-30T03:38:13;9.60;99.90
20977;DHT22;10647;51.016;3.720;2023-04-30T03:40:40;9.60;99.90
20977;DHT22;10647;51.016;3.720;2023-04-30T03:43:08;9.60;99.90
20977;DHT22;10647;51.016;3.720;2023-04-30T03:45:35;9.60;99.90
20977;DHT22;10647;51.016;3.720;2023-04-30T03:48:03;9.50;99.90
20977;DHT22;10647;51.016;3.720;2023-04-30T03:50:31;9.50;99.90
20977;DHT22;10647;51.016;3.720;2023-04-30T03:52:58;9.50;99.90
20977;DHT22;10647;51.016;3.720;2023-04-30T03:55:26;9.50;99.90
20977;DHT22;10647;51.016;3.720;2023-04-30T03:57:54;9.50;99.90
20977;DHT22;10647;51.016;3.720;2023-04-30T04:00:21;9.50;99.90
20977;DHT22;10647;51.016;3.720;2023-04-30T04:02:49;9.50;99.90
20977;DHT22;10647;51.016;3.720;2023-04-30T04:05:17;9.50;99.90
20977;DHT22;10647;51.016;3.720;2023-04-30T04:07:44;9.50;99.90
20977;DHT22;10647;51.016;3.720;2023-04-30T04:10:12;9.40;99.90
20977;DHT22;10647;51.016;3.720;2023-04-30T04:12:39;9.40;99.90
20977;DHT22;10647;51.016;3.720;2023-04-30T04:17:56;9.40;99.90
20977;DHT22;10647;51.016;3.720;2023-04-30T04:20:42;9.40;99.90
20977;DHT22;10647;51.016;3.720;2023-04-30T04:23:13;9.40;99.90
20977;DHT22;10647;51.016;3.720;2023-04-30T04:25:41;9.40;99.90
20977;DHT22;10647;51.016;3.720;2023-04-30T04:28:09;9.30;99.90
20977;DHT22;10647;51.016;3.720;2023-04-30T04:30:37;9.30;99.90
20977;DHT22;10647;51.016;3.720;2023-04-30T04:33:06;9.30;99.90
20977;DHT22;10647;51.016;3.720;2023-04-30T04:35:34;9.40;99.90
20977;DHT22;10647;51.016;3.720;2023-04-30T04:38:02;9.40;99.90
20977;DHT22;10647;51.016;3.720;2023-04-30T04:40:30;9.40;99.90
20977;DHT22;10647;51.016;3.720;2023-04-30T04:42:57;9.40;99.90
20977;DHT22;10647;51.016;3.720;2023-04-30T04:45:25;9.40;99.90
20977;DHT22;10647;51.016;3.720;2023-04-30T04:47:52;9.50;99.90
20977;DHT22;10647;51.016;3.720;2023-04-30T04:50:20;9.50;99.90
20977;DHT22;10647;51.016;3.720;2023-04-30T04:52:48;9.60;99.90
20977;DHT22;10647;51.016;3.720;2023-04-30T04:55:15;9.60;99.90
20977;DHT22;10647;51.016;3.720;2023-04-30T04:57:44;9.60;99.90
20977;DHT22;10647;51.016;3.720;2023-04-30T05:00:12;9.70;99.90
20977;DHT22;10647;51.016;3.720;2023-04-30T05:02:39;9.70;99.90
20977;DHT22;10647;51.016;3.720;2023-04-30T05:05:07;9.80;99.90
20977;DHT22;10647;51.016;3.720;2023-04-30T05:07:36;9.80;99.90
20977;DHT22;10647;51.016;3.720;2023-04-30T05:10:04;9.90;99.90
20977;DHT22;10647;51.016;3.720;2023-04-30T05:12:32;9.90;99.90
20977;DHT22;10647;51.016;3.720;2023-04-30T05:14:59;10.00;99.90
20977;DHT22;10647;51.016;3.720;2023-04-30T05:17:27;10.00;99.90
20977;DHT22;10647;51.016;3.720;2023-04-30T05:19:54;10.10;99.90
20977;DHT22;10647;51.016;3.720;2023-04-30T05:22:22;10.20;99.90
20977;DHT22;10647;51.016;3.720;2023-04-30T05:24:50;10.20;99.90
20977;DHT22;10647;51.016;3.720;2023-04-30T05:27:18;10.30;99.90
20977;DHT22;10647;51.016;3.720;2023-04-30T05:29:46;10.30;99.90
20977;DHT22;10647;51.016;3.720;2023-04-30T05:32:14;10.40;99.90
20977;DHT22;10647;51.016;3.720;2023-04-30T05:34:41;10.50;99.90
20977;DHT22;10647;51.016;3.720;2023-04-30T05:37:09;10.50;99.90
20977;DHT22;10647;51.016;3.720;2023-04-30T05:39:38;10.60;99.90
20977;DHT22;10647;51.016;3.720;2023-04-30T05:42:06;10.70;99.90
20977;DHT22;10647;51.016;3.720;2023-04-30T05:44:34;10.70;99.90
20977;DHT22;10647;51.016;3.720;2023-04-30T05:47:03;10.80;99.90
20977;DHT22;10647;51.016;3.720;2023-04-30T05:49:30;10.90;99.90
20977;DHT22;10647;51.016;3.720;2023-04-30T05:51:58;10.90;99.90
20977;DHT22;10647;51.016;3.720;2023-04-30T05:54:26;11.00;99.90
20977;DHT22;10647;51.016;3.720;2023-04-30T05:56:54;11.00;99.90
20977;DHT22;10647;51.016;3.720;2023-04-30T05:59:22;11.10;99.90
20977;DHT22;10647;51.016;3.720;2023-04-30T06:01:49;11.20;99.90
20977;DHT22;10647;51.016;3.720;2023-04-30T06:04:17;11.30;99.90
20977;DHT22;10647;51.016;3.720;2023-04-30T06:06:44;11.40;99.90
20977;DHT22;10647;51.016;3.720;2023-04-30T06:09:12;11.50;99.90
20977;DHT22;10647;51.016;3.720;2023-04-30T06:11:39;11.50;99.90
20977;DHT22;10647;51.016;3.720;2023-04-30T06:14:08;11.60;99.90
20977;DHT22;10647;51.016;3.720;2023-04-30T06:16:39;11.70;99.90
20977;DHT22;10647;51.016;3.720;2023-04-30T06:19:06;11.80;99.90
20977;DHT22;10647;51.016;3.720;2023-04-30T06:21:34;11.90;99.90
20977;DHT22;10647;51.016;3.720;2023-04-30T06:24:02;12.00;99.90
20977;DHT22;10647;51.016;3.720;2023-04-30T06:26:29;12.10;99.90
20977;DHT22;10647;51.016;3.720;2023-04-30T06:28:57;12.20;99.90
20977;DHT22;10647;51.016;3.720;2023-04-30T06:31:24;12.30;99.90
20977;DHT22;10647;51.016;3.720;2023-04-30T06:33:52;12.40;99.90
20977;DHT22;10647;51.016;3.720;2023-04-30T06:36:21;12.50;99.90
20977;DHT22;10647;51.016;3.720;2023-04-30T06:38:48;12.60;99.90
20977;DHT22;10647;51.016;3.720;2023-04-30T06:41:16;12.80;99.90
20977;DHT22;10647;51.016;3.720;2023-04-30T06:43:43;12.90;99.90
20977;DHT22;10647;51.016;3.720;2023-04-30T06:46:11;13.00;99.90
20977;DHT22;10647;51.016;3.720;2023-04-30T06:48:40;13.00;99.90
20977;DHT22;10647;51.016;3.720;2023-04-30T06:51:08;13.10;99.90
20977;DHT22;10647;51.016;3.720;2023-04-30T06:53:36;13.20;99.90
20977;DHT22;10647;51.016;3.720;2023-04-30T06:56:04;13.20;99.90
20977;DHT22;10647;51.016;3.720;2023-04-30T06:58:32;13.30;99.90
20977;DHT22;10647;51.016;3.720;2023-04-30T07:00:59;13.40;99.90
20977;DHT22;10647;51.016;3.720;2023-04-30T07:03:27;13.50;99.90
20977;DHT22;10647;51.016;3.720;2023-04-30T07:05:54;13.60;99.90
20977;DHT22;10647;51.016;3.720;2023-04-30T07:08:22;13.70;99.90
20977;DHT22;10647;51.016;3.720;2023-04-30T07:10:50;13.80;99.90
20977;DHT22;10647;51.016;3.720;2023-04-30T07:13:18;13.90;99.90
20977;DHT22;10647;51.016;3.720;2023-04-30T07:15:45;14.00;99.90
20977;DHT22;10647;51.016;3.720;2023-04-30T07:18:13;14.00;99.90
20977;DHT22;10647;51.016;3.720;2023-04-30T07:20:42;14.10;99.90
20977;DHT22;10647;51.016;3.720;2023-04-30T07:23:10;14.20;99.90
20977;DHT22;10647;51.016;3.720;2023-04-30T07:25:37;14.30;99.90
20977;DHT22;10647;51.016;3.720;2023-04-30T07:28:05;14.40;99.90
20977;DHT22;10647;51.016;3.720;2023-04-30T07:30:34;14.40;99.90
20977;DHT22;10647;51.016;3.720;2023-04-30T07:33:01;14.60;99.90
20977;DHT22;10647;51.016;3.720;2023-04-30T07:35:29;14.60;99.90
20977;DHT22;10647;51.016;3.720;2023-04-30T07:37:56;14.70;99.90
20977;DHT22;10647;51.016;3.720;2023-04-30T07:40:24;14.80;99.90
20977;DHT22;10647;51.016;3.720;2023-04-30T07:42:52;14.90;99.90
20977;DHT22;10647;51.016;3.720;2023-04-30T07:45:19;15.00;99.90
20977;DHT22;10647;51.016;3.720;2023-04-30T07:47:47;15.10;99.90
20977;DHT22;10647;51.016;3.720;2023-04-30T07:50:15;15.20;99.90
20977;DHT22;10647;51.016;3.720;2023-04-30T07:52:42;15.30;99.90
20977;DHT22;10647;51.016;3.720;2023-04-30T07:55:10;15.30;99.90
20977;DHT22;10647;51.016;3.720;2023-04-30T07:57:38;15.40;99.90
20977;DHT22;10647;51.016;3.720;2023-04-30T08:00:06;15.50;99.90
20977;DHT22;10647;51.016;3.720;2023-04-30T08:02:34;15.60;99.90
20977;DHT22;10647;51.016;3.720;2023-04-30T08:05:02;15.70;99.90
20977;DHT22;10647;51.016;3.720;2023-04-30T08:07:31;15.70;99.90
20977;DHT22;10647;51.016;3.720;2023-04-30T08:09:59;15.80;99.90
20977;DHT22;10647;51.016;3.720;2023-04-30T08:12:26;15.90;99.90
20977;DHT22;10647;51.016;3.720;2023-04-30T08:15:03;16.00;99.90
20977;DHT22;10647;51.016;3.720;2023-04-30T08:17:31;16.10;99.90
20977;DHT22;10647;51.016;3.720;2023-04-30T08:20:02;16.20;99.90
20977;DHT22;10647;51.016;3.720;2023-04-30T08:22:29;16.20;99.90
20977;DHT22;10647;51.016;3.720;2023-04-30T08:24:57;16.30;99.90
20977;DHT22;10647;51.016;3.720;2023-04-30T08:27:26;16.40;99.90
20977;DHT22;10647;51.016;3.720;2023-04-30T08:29:54;16.50;99.90
20977;DHT22;10647;51.016;3.720;2023-04-30T08:32:21;16.60;99.90
20977;DHT22;10647;51.016;3.720;2023-04-30T08:34:49;16.70;99.90
20977;DHT22;10647;51.016;3.720;2023-04-30T08:37:17;16.80;99.90
20977;DHT22;10647;51.016;3.720;2023-04-30T08:39:44;16.90;99.90
20977;DHT22;10647;51.016;3.720;2023-04-30T08:42:13;17.00;99.90
20977;DHT22;10647;51.016;3.720;2023-04-30T08:44:41;17.10;99.90
20977;DHT22;10647;51.016;3.720;2023-04-30T08:47:13;17.10;99.90
20977;DHT22;10647;51.016;3.720;2023-04-30T08:49:42;17.20;99.90
20977;DHT22;10647;51.016;3.720;2023-04-30T08:52:11;17.30;99.90
20977;DHT22;10647;51.016;3.720;2023-04-30T08:54:39;17.40;99.90
20977;DHT22;10647;51.016;3.720;2023-04-30T08:57:07;17.50;99.90
20977;DHT22;10647;51.016;3.720;2023-04-30T08:59:43;17.60;99.90
20977;DHT22;10647;51.016;3.720;2023-04-30T09:02:11;17.70;99.90
20977;DHT22;10647;51.016;3.720;2023-04-30T09:04:38;17.80;99.90
20977;DHT22;10647;51.016;3.720;2023-04-30T09:07:06;17.90;99.90
20977;DHT22;10647;51.016;3.720;2023-04-30T09:09:38;18.00;99.90
20977;DHT22;10647;51.016;3.720;2023-04-30T09:12:18;18.10;99.90
20977;DHT22;10647;51.016;3.720;2023-04-30T09:14:58;18.20;99.90
20977;DHT22;10647;51.016;3.720;2023-04-30T09:17:27;18.30;99.90
20977;DHT22;10647;51.016;3.720;2023-04-30T09:20:08;18.40;99.90
20977;DHT22;10647;51.016;3.720;2023-04-30T09:22:37;18.50;99.90
20977;DHT22;10647;51.016;3.720;2023-04-30T09:25:05;18.50;99.90
20977;DHT22;10647;51.016;3.720;2023-04-30T09:27:36;18.60;99.90
20977;DHT22;10647;51.016;3.720;2023-04-30T09:30:04;18.70;99.90
20977;DHT22;10647;51.016;3.720;2023-04-30T09:35:32;18.90;99.90
20977;DHT22;10647;51.016;3.720;2023-04-30T09:38:00;18.90;99.90
20977;DHT22;10647;51.016;3.720;2023-04-30T09:40:38;19.10;99.90
20977;DHT22;10647;51.016;3.720;2023-04-30T09:43:06;19.30;99.90
20977;DHT22;10647;51.016;3.720;2023-04-30T09:45:42;19.40;99.90
20977;DHT22;10647;51.016;3.720;2023-04-30T09:48:32;19.60;99.90
20977;DHT22;10647;51.016;3.720;2023-04-30T09:50:47;19.60;99.90
20977;DHT22;10647;51.016;3.720;2023-04-30T09:53:17;19.80;99.90
20977;DHT22;10647;51.016;3.720;2023-04-30T09:55:51;19.90;99.90
20977;DHT22;10647;51.016;3.720;2023-04-30T09:58:19;20.10;99.90
20977;DHT22;10647;51.016;3.720;2023-04-30T10:00:49;20.30;99.90
20977;DHT22;10647;51.016;3.720;2023-04-30T10:03:20;20.50;99.90
20977;DHT22;10647;51.016;3.720;2023-04-30T10:05:50;20.50;99.90
20977;DHT22;10647;51.016;3.720;2023-04-30T10:08:30;20.50;99.90
20977;DHT22;10647;51.016;3.720;2023-04-30T10:11:02;20.60;99.90
20977;DHT22;10647;51.016;3.720;2023-04-30T10:13:34;20.80;99.90
20977;DHT22;10647;51.016;3.720;2023-04-30T10:16:06;20.80;99.90
20977;DHT22;10647;51.016;3.720;2023-04-30T10:18:38;20.70;99.30
20977;DHT22;10647;51.016;3.720;2023-04-30T10:21:09;20.60;98.90
20977;DHT22;10647;51.016;3.720;2023-04-30T10:23:38;20.50;98.70
20977;DHT22;10647;51.016;3.720;2023-04-30T10:26:10;20.50;98.50
20977;DHT22;10647;51.016;3.720;2023-04-30T10:28:38;20.70;97.80
20977;DHT22;10647;51.016;3.720;2023-04-30T10:31:07;20.80;97.00
20977;DHT22;10647;51.016;3.720;2023-04-30T10:33:51;21.00;96.70
20977;DHT22;10647;51.016;3.720;2023-04-30T10:36:38;21.20;96.50
20977;DHT22;10647;51.016;3.720;2023-04-30T10:38:46;21.40;95.80
20977;DHT22;10647;51.016;3.720;2023-04-30T10:41:17;21.50;95.30
20977;DHT22;10647;51.016;3.720;2023-04-30T10:43:46;21.70;94.90
20977;DHT22;10647;51.016;3.720;2023-04-30T10:46:25;21.80;94.30
20977;DHT22;10647;51.016;3.720;2023-04-30T10:48:54;22.00;93.90
20977;DHT22;10647;51.016;3.720;2023-04-30T10:51:23;22.10;93.50
20977;DHT22;10647;51.016;3.720;2023-04-30T10:53:53;22.20;93.20
20977;DHT22;10647;51.016;3.720;2023-04-30T10:56:32;22.30;92.10
20977;DHT22;10647;51.016;3.720;2023-04-30T10:59:00;22.50;91.50
20977;DHT22;10647;51.016;3.720;2023-04-30T11:01:29;22.50;90.90
20977;DHT22;10647;51.016;3.720;2023-04-30T11:04:05;22.60;90.80
20977;DHT22;10647;51.016;3.720;2023-04-30T11:06:54;22.70;90.60
20977;DHT22;10647;51.016;3.720;2023-04-30T11:12:29;23.00;90.10
20977;DHT22;10647;51.016;3.720;2023-04-30T11:15:05;22.90;87.00
20977;DHT22;10647;51.016;3.720;2023-04-30T11:17:33;22.80;85.20
20977;DHT22;10647;51.016;3.720;2023-04-30T11:20:03;22.80;85.70
20977;DHT22;10647;51.016;3.720;2023-04-30T11:22:31;23.00;86.00
20977;DHT22;10647;51.016;3.720;2023-04-30T11:25:08;23.10;85.60
20977;DHT22;10647;51.016;3.720;2023-04-30T11:27:38;23.00;84.70
20977;DHT22;10647;51.016;3.720;2023-04-30T11:30:17;22.90;83.30
20977;DHT22;10647;51.016;3.720;2023-04-30T11:32:51;23.00;82.70
20977;DHT22;10647;51.016;3.720;2023-04-30T11:35:20;23.30;81.30
20977;DHT22;10647;51.016;3.720;2023-04-30T11:37:53;23.60;82.20
20977;DHT22;10647;51.016;3.720;2023-04-30T11:40:20;23.90;81.80
20977;DHT22;10647;51.016;3.720;2023-04-30T11:42:47;24.20;80.60
20977;DHT22;10647;51.016;3.720;2023-04-30T11:45:17;24.20;79.50
20977;DHT22;10647;51.016;3.720;2023-04-30T11:47:56;24.20;78.30
20977;DHT22;10647;51.016;3.720;2023-04-30T11:50:27;24.40;77.50
20977;DHT22;10647;51.016;3.720;2023-04-30T11:52:57;24.60;76.80
20977;DHT22;10647;51.016;3.720;2023-04-30T11:55:27;24.80;77.10
20977;DHT22;10647;51.016;3.720;2023-04-30T11:57:56;24.90;76.50
20977;DHT22;10647;51.016;3.720;2023-04-30T12:00:28;25.00;74.80
20977;DHT22;10647;51.016;3.720;2023-04-30T12:03:02;25.10;75.00
20977;DHT22;10647;51.016;3.720;2023-04-30T12:05:29;25.30;75.00
20977;DHT22;10647;51.016;3.720;2023-04-30T12:07:59;25.50;74.20
20977;DHT22;10647;51.016;3.720;2023-04-30T12:10:31;25.80;73.60
20977;DHT22;10647;51.016;3.720;2023-04-30T12:13:04;25.80;72.50
20977;DHT22;10647;51.016;3.720;2023-04-30T12:15:33;26.00;71.80
20977;DHT22;10647;51.016;3.720;2023-04-30T12:18:10;25.90;69.90
20977;DHT22;10647;51.016;3.720;2023-04-30T12:20:31;26.10;70.10
20977;DHT22;10647;51.016;3.720;2023-04-30T12:22:59;26.50;70.50
20977;DHT22;10647;51.016;3.720;2023-04-30T12:25:31;26.90;70.60
20977;DHT22;10647;51.016;3.720;2023-04-30T12:27:59;27.00;69.40
20977;DHT22;10647;51.016;3.720;2023-04-30T12:30:29;27.50;69.70
20977;DHT22;10647;51.016;3.720;2023-04-30T12:32:58;27.90;68.20
20977;DHT22;10647;51.016;3.720;2023-04-30T12:35:29;28.10;67.20
20977;DHT22;10647;51.016;3.720;2023-04-30T12:38:05;28.10;66.30
20977;DHT22;10647;51.016;3.720;2023-04-30T12:40:34;28.30;65.60
20977;DHT22;10647;51.016;3.720;2023-04-30T12:43:03;28.60;64.40
20977;DHT22;10647;51.016;3.720;2023-04-30T12:45:50;28.50;63.90
20977;DHT22;10647;51.016;3.720;2023-04-30T12:48:21;28.30;63.40
20977;DHT22;10647;51.016;3.720;2023-04-30T12:50:54;28.10;63.50
20977;DHT22;10647;51.016;3.720;2023-04-30T12:53:22;27.80;63.20
20977;DHT22;10647;51.016;3.720;2023-04-30T12:56:11;27.50;63.10
20977;DHT22;10647;51.016;3.720;2023-04-30T12:58:42;27.80;63.10
20977;DHT22;10647;51.016;3.720;2023-04-30T13:01:12;30.50;62.40
20977;DHT22;10647;51.016;3.720;2023-04-30T13:03:42;34.60;58.20
20977;DHT22;10647;51.016;3.720;2023-04-30T13:06:09;37.20;52.50
20977;DHT22;10647;51.016;3.720;2023-04-30T13:08:37;38.70;49.50
20977;DHT22;10647;51.016;3.720;2023-04-30T13:11:05;39.30;46.00
20977;DHT22;10647;51.016;3.720;2023-04-30T13:13:34;40.30;44.80
20977;DHT22;10647;51.016;3.720;2023-04-30T13:16:05;39.50;43.30
20977;DHT22;10647;51.016;3.720;2023-04-30T13:18:35;38.30;44.00
20977;DHT22;10647;51.016;3.720;2023-04-30T13:21:06;37.60;43.70
20977;DHT22;10647;51.016;3.720;2023-04-30T13:23:33;39.70;43.30
20977;DHT22;10647;51.016;3.720;2023-04-30T13:26:00;41.30;41.40
20977;DHT22;10647;51.016;3.720;2023-04-30T13:28:28;42.00;39.60
20977;DHT22;10647;51.016;3.720;2023-04-30T13:30:58;42.50;38.20
20977;DHT22;10647;51.016;3.720;2023-04-30T13:33:27;43.10;37.30
20977;DHT22;10647;51.016;3.720;2023-04-30T13:35:57;43.60;36.60
20977;DHT22;10647;51.016;3.720;2023-04-30T13:38:24;43.80;35.40
20977;DHT22;10647;51.016;3.720;2023-04-30T13:40:53;43.90;35.10
20977;DHT22;10647;51.016;3.720;2023-04-30T13:43:20;43.70;34.30
20977;DHT22;10647;51.016;3.720;2023-04-30T13:45:49;41.80;34.70
20977;DHT22;10647;51.016;3.720;2023-04-30T13:48:19;42.20;35.10
20977;DHT22;10647;51.016;3.720;2023-04-30T13:50:52;43.10;34.60
20977;DHT22;10647;51.016;3.720;2023-04-30T13:53:22;43.70;33.30
20977;DHT22;10647;51.016;3.720;2023-04-30T13:55:49;44.30;33.40
20977;DHT22;10647;51.016;3.720;2023-04-30T13:58:17;44.30;32.90
20977;DHT22;10647;51.016;3.720;2023-04-30T14:00:47;43.10;33.30
20977;DHT22;10647;51.016;3.720;2023-04-30T14:03:21;43.60;33.30
20977;DHT22;10647;51.016;3.720;2023-04-30T14:05:51;44.90;32.30
20977;DHT22;10647;51.016;3.720;2023-04-30T14:08:18;45.40;31.70
20977;DHT22;10647;51.016;3.720;2023-04-30T14:10:47;44.40;31.60
20977;DHT22;10647;51.016;3.720;2023-04-30T14:13:14;44.50;31.60
20977;DHT22;10647;51.016;3.720;2023-04-30T14:15:43;45.10;31.10
20977;DHT22;10647;51.016;3.720;2023-04-30T14:18:12;44.00;31.00
20977;DHT22;10647;51.016;3.720;2023-04-30T14:20:40;40.70;32.80
20977;DHT22;10647;51.016;3.720;2023-04-30T14:23:10;38.80;34.50
20977;DHT22;10647;51.016;3.720;2023-04-30T14:25:43;38.80;34.60
20977;DHT22;10647;51.016;3.720;2023-04-30T14:28:14;36.50;36.30
20977;DHT22;10647;51.016;3.720;2023-04-30T14:30:41;35.00;37.90
20977;DHT22;10647;51.016;3.720;2023-04-30T14:33:11;33.90;38.80
20977;DHT22;10647;51.016;3.720;2023-04-30T14:35:39;35.10;39.10
20977;DHT22;10647;51.016;3.720;2023-04-30T14:38:06;36.00;37.90
20977;DHT22;10647;51.016;3.720;2023-04-30T14:40:34;35.20;38.00
20977;DHT22;10647;51.016;3.720;2023-04-30T14:43:03;34.10;39.00
20977;DHT22;10647;51.016;3.720;2023-04-30T14:45:32;35.90;38.80
20977;DHT22;10647;51.016;3.720;2023-04-30T14:48:00;38.20;37.40
20977;DHT22;10647;51.016;3.720;2023-04-30T14:50:29;39.80;35.30
20977;DHT22;10647;51.016;3.720;2023-04-30T14:52:57;40.20;34.40
20977;DHT22;10647;51.016;3.720;2023-04-30T14:55:28;40.20;34.00
20977;DHT22;10647;51.016;3.720;2023-04-30T14:57:57;39.90;33.90
20977;DHT22;10647;51.016;3.720;2023-04-30T15:00:26;38.30;34.70
20977;DHT22;10647;51.016;3.720;2023-04-30T15:02:54;36.60;35.90
20977;DHT22;10647;51.016;3.720;2023-04-30T15:05:22;35.50;36.80
20977;DHT22;10647;51.016;3.720;2023-04-30T15:07:50;35.10;37.50
20977;DHT22;10647;51.016;3.720;2023-04-30T15:10:18;35.30;37.60
20977;DHT22;10647;51.016;3.720;2023-04-30T15:12:45;34.90;37.90
20977;DHT22;10647;51.016;3.720;2023-04-30T15:15:13;33.90;38.50
20977;DHT22;10647;51.016;3.720;2023-04-30T15:17:41;33.10;39.70
20977;DHT22;10647;51.016;3.720;2023-04-30T15:20:08;33.30;39.90
20977;DHT22;10647;51.016;3.720;2023-04-30T15:22:36;33.60;39.80
20977;DHT22;10647;51.016;3.720;2023-04-30T15:25:04;33.30;40.10
20977;DHT22;10647;51.016;3.720;2023-04-30T15:27:31;33.20;40.00
20977;DHT22;10647;51.016;3.720;2023-04-30T15:29:59;33.30;40.20
20977;DHT22;10647;51.016;3.720;2023-04-30T15:32:26;33.00;40.60
20977;DHT22;10647;51.016;3.720;2023-04-30T15:34:54;32.60;40.70
20977;DHT22;10647;51.016;3.720;2023-04-30T15:37:21;32.00;41.00
20977;DHT22;10647;51.016;3.720;2023-04-30T15:39:49;31.50;41.60
20977;DHT22;10647;51.016;3.720;2023-04-30T15:42:16;31.10;42.30
20977;DHT22;10647;51.016;3.720;2023-04-30T15:44:44;30.80;42.50
20977;DHT22;10647;51.016;3.720;2023-04-30T15:47:11;30.70;43.20
20977;DHT22;10647;51.016;3.720;2023-04-30T15:49:39;30.70;43.50
20977;DHT22;10647;51.016;3.720;2023-04-30T15:52:06;30.60;43.70
20977;DHT22;10647;51.016;3.720;2023-04-30T15:54:35;30.40;43.50
20977;DHT22;10647;51.016;3.720;2023-04-30T15:57:03;30.20;43.60
20977;DHT22;10647;51.016;3.720;2023-04-30T15:59:30;30.10;43.70
20977;DHT22;10647;51.016;3.720;2023-04-30T16:01:58;29.80;44.00
20977;DHT22;10647;51.016;3.720;2023-04-30T16:04:25;29.60;44.20
20977;DHT22;10647;51.016;3.720;2023-04-30T16:06:54;29.40;44.60
20977;DHT22;10647;51.016;3.720;2023-04-30T16:09:22;29.20;44.90